Strona główna
METAR-TAF:

METAR-TAF

Lotnisko :

Port lotniczy Stokmarknes

Stokmarknes, Norwegia

Szerokość geograficzna: 68-35N, Długość geograficzna: 015-01E, wysokość: 0 m

Aktualna obserwacja pogody

Raport powstał 3 godziny i 27 minut temu, godzina 22:20 UTC
Wiatr 7 kt od północny wschód
Temperatura -3°C
Wilgotność 63%
Ciśnienie 1021 hPa
Widzialność 10 km lub więcej
Mało chmury na wysokości 3000 ft
Rozproszone chmury na wysokości 14000 ft

METAR: ENSK 052220Z 04007KT 9999 FEW030 SCT140 M03/M09 Q1021

czas: 03:47 (01:47 UTC)


TAF: brakujący

Obserwacja i prognoza pogody dla ponad 4000 lotnisk (raport METAR i TAF).

Dostępne stacje oznaczono żółtymi i czerwonymi punktami na mapie.

Najedź kursorem aby zobaczyć nazwę stacji.

Kliknij aby zobaczyć obserwacje i prognozy pogody.

Aby zmienić mapę: kliknij na zielony przycisk z czarnym krzyżykiem, aby powiększyć; na zielony przycisk z myślnikiem, aby pomniejszyć; na zielone strzałki, aby przejść do map sąsiednich.


METAR-TAF: